sensor_id;sensor_type;location;lat;lon;timestamp;P1;durP1;ratioP1;P2;durP2;ratioP2
13660;SDS011;6903;49.480;11.102;2022-07-23T00:00:44;17.67;;;13.07;;
13660;SDS011;6903;49.480;11.102;2022-07-23T00:03:09;15.25;;;13.75;;
13660;SDS011;6903;49.480;11.102;2022-07-23T00:05:35;16.23;;;14.40;;
13660;SDS011;6903;49.480;11.102;2022-07-23T00:08:00;16.40;;;14.77;;
13660;SDS011;6903;49.480;11.102;2022-07-23T00:10:26;14.45;;;13.13;;
13660;SDS011;6903;49.480;11.102;2022-07-23T00:12:51;17.25;;;14.65;;
13660;SDS011;6903;49.480;11.102;2022-07-23T00:15:17;16.90;;;15.10;;
13660;SDS011;6903;49.480;11.102;2022-07-23T00:17:42;17.88;;;15.40;;
13660;SDS011;6903;49.480;11.102;2022-07-23T00:20:07;15.93;;;14.32;;
13660;SDS011;6903;49.480;11.102;2022-07-23T00:22:33;16.45;;;14.23;;
13660;SDS011;6903;49.480;11.102;2022-07-23T00:24:58;15.10;;;13.60;;
13660;SDS011;6903;49.480;11.102;2022-07-23T00:27:23;16.15;;;14.65;;
13660;SDS011;6903;49.480;11.102;2022-07-23T00:29:49;17.08;;;14.05;;
13660;SDS011;6903;49.480;11.102;2022-07-23T00:32:14;15.25;;;13.65;;
13660;SDS011;6903;49.480;11.102;2022-07-23T00:34:40;16.10;;;14.50;;
13660;SDS011;6903;49.480;11.102;2022-07-23T00:40:27;17.48;;;15.65;;
13660;SDS011;6903;49.480;11.102;2022-07-23T00:42:53;17.42;;;14.75;;
13660;SDS011;6903;49.480;11.102;2022-07-23T00:45:19;19.02;;;16.25;;
13660;SDS011;6903;49.480;11.102;2022-07-23T00:47:44;18.85;;;15.07;;
13660;SDS011;6903;49.480;11.102;2022-07-23T00:50:10;20.50;;;16.50;;
13660;SDS011;6903;49.480;11.102;2022-07-23T00:52:36;16.27;;;14.65;;
13660;SDS011;6903;49.480;11.102;2022-07-23T00:55:03;18.73;;;15.98;;
13660;SDS011;6903;49.480;11.102;2022-07-23T00:57:30;20.45;;;15.00;;
13660;SDS011;6903;49.480;11.102;2022-07-23T00:59:55;18.45;;;15.70;;
13660;SDS011;6903;49.480;11.102;2022-07-23T01:02:22;17.50;;;15.73;;
13660;SDS011;6903;49.480;11.102;2022-07-23T01:04:48;15.70;;;14.18;;
13660;SDS011;6903;49.480;11.102;2022-07-23T01:07:14;20.30;;;16.13;;
13660;SDS011;6903;49.480;11.102;2022-07-23T01:09:40;17.83;;;16.10;;
13660;SDS011;6903;49.480;11.102;2022-07-23T01:12:05;18.25;;;16.23;;
13660;SDS011;6903;49.480;11.102;2022-07-23T01:14:31;17.52;;;15.73;;
13660;SDS011;6903;49.480;11.102;2022-07-23T01:16:57;16.65;;;14.95;;
13660;SDS011;6903;49.480;11.102;2022-07-23T01:19:22;20.38;;;16.67;;
13660;SDS011;6903;49.480;11.102;2022-07-23T01:21:48;18.08;;;16.10;;
13660;SDS011;6903;49.480;11.102;2022-07-23T01:24:15;16.95;;;15.35;;
13660;SDS011;6903;49.480;11.102;2022-07-23T01:26:44;17.88;;;15.60;;
13660;SDS011;6903;49.480;11.102;2022-07-23T01:29:10;15.80;;;14.35;;
13660;SDS011;6903;49.480;11.102;2022-07-23T01:31:36;17.55;;;15.82;;
13660;SDS011;6903;49.480;11.102;2022-07-23T01:34:02;16.33;;;14.82;;
13660;SDS011;6903;49.480;11.102;2022-07-23T01:36:27;17.77;;;15.25;;
13660;SDS011;6903;49.480;11.102;2022-07-23T01:38:53;16.60;;;15.13;;
13660;SDS011;6903;49.480;11.102;2022-07-23T01:41:18;17.67;;;15.93;;
13660;SDS011;6903;49.480;11.102;2022-07-23T01:43:44;17.05;;;15.55;;
13660;SDS011;6903;49.480;11.102;2022-07-23T01:46:09;17.88;;;16.00;;
13660;SDS011;6903;49.480;11.102;2022-07-23T01:48:35;18.83;;;16.77;;
13660;SDS011;6903;49.480;11.102;2022-07-23T01:51:00;18.17;;;16.48;;
13660;SDS011;6903;49.480;11.102;2022-07-23T01:53:26;17.40;;;15.70;;
13660;SDS011;6903;49.480;11.102;2022-07-23T01:55:51;17.20;;;15.48;;
13660;SDS011;6903;49.480;11.102;2022-07-23T01:58:16;16.85;;;15.05;;
13660;SDS011;6903;49.480;11.102;2022-07-23T02:00:42;18.63;;;16.65;;
13660;SDS011;6903;49.480;11.102;2022-07-23T02:03:07;17.77;;;15.77;;
13660;SDS011;6903;49.480;11.102;2022-07-23T02:05:32;17.35;;;15.75;;
13660;SDS011;6903;49.480;11.102;2022-07-23T02:07:58;16.13;;;14.63;;
13660;SDS011;6903;49.480;11.102;2022-07-23T02:10:24;16.73;;;14.75;;
13660;SDS011;6903;49.480;11.102;2022-07-23T02:12:50;16.25;;;14.13;;
13660;SDS011;6903;49.480;11.102;2022-07-23T02:15:15;16.75;;;15.15;;
13660;SDS011;6903;49.480;11.102;2022-07-23T02:17:41;17.02;;;15.23;;
13660;SDS011;6903;49.480;11.102;2022-07-23T02:20:07;16.67;;;15.00;;
13660;SDS011;6903;49.480;11.102;2022-07-23T02:22:33;16.40;;;14.80;;
13660;SDS011;6903;49.480;11.102;2022-07-23T02:24:59;16.35;;;14.65;;
13660;SDS011;6903;49.480;11.102;2022-07-23T02:27:24;15.93;;;14.43;;
13660;SDS011;6903;49.480;11.102;2022-07-23T02:29:49;16.27;;;14.55;;
13660;SDS011;6903;49.480;11.102;2022-07-23T02:32:15;15.50;;;14.07;;
13660;SDS011;6903;49.480;11.102;2022-07-23T02:34:40;15.45;;;13.95;;
13660;SDS011;6903;49.480;11.102;2022-07-23T02:37:05;15.82;;;14.32;;
13660;SDS011;6903;49.480;11.102;2022-07-23T02:39:33;15.02;;;13.50;;
13660;SDS011;6903;49.480;11.102;2022-07-23T02:41:59;15.57;;;14.05;;
13660;SDS011;6903;49.480;11.102;2022-07-23T02:44:24;15.10;;;13.68;;
13660;SDS011;6903;49.480;11.102;2022-07-23T02:46:49;15.88;;;14.38;;
13660;SDS011;6903;49.480;11.102;2022-07-23T02:49:14;15.02;;;13.55;;
13660;SDS011;6903;49.480;11.102;2022-07-23T02:51:40;16.15;;;14.45;;
13660;SDS011;6903;49.480;11.102;2022-07-23T02:54:05;16.60;;;14.68;;
13660;SDS011;6903;49.480;11.102;2022-07-23T02:56:30;15.98;;;14.23;;
13660;SDS011;6903;49.480;11.102;2022-07-23T02:58:56;18.40;;;16.50;;
13660;SDS011;6903;49.480;11.102;2022-07-23T03:01:21;19.05;;;16.60;;
13660;SDS011;6903;49.480;11.102;2022-07-23T03:03:47;18.30;;;16.60;;
13660;SDS011;6903;49.480;11.102;2022-07-23T03:06:12;20.05;;;15.95;;
13660;SDS011;6903;49.480;11.102;2022-07-23T03:08:38;16.30;;;14.80;;
13660;SDS011;6903;49.480;11.102;2022-07-23T03:11:03;18.92;;;15.82;;
13660;SDS011;6903;49.480;11.102;2022-07-23T03:13:29;16.92;;;15.23;;
13660;SDS011;6903;49.480;11.102;2022-07-23T03:15:54;16.83;;;15.23;;
13660;SDS011;6903;49.480;11.102;2022-07-23T03:18:19;16.98;;;15.05;;
13660;SDS011;6903;49.480;11.102;2022-07-23T03:20:45;17.42;;;15.80;;
13660;SDS011;6903;49.480;11.102;2022-07-23T03:23:10;17.05;;;15.32;;
13660;SDS011;6903;49.480;11.102;2022-07-23T03:25:36;18.27;;;16.45;;
13660;SDS011;6903;49.480;11.102;2022-07-23T03:28:01;17.50;;;15.88;;
13660;SDS011;6903;49.480;11.102;2022-07-23T03:30:26;18.33;;;16.45;;
13660;SDS011;6903;49.480;11.102;2022-07-23T03:32:51;16.77;;;15.00;;
13660;SDS011;6903;49.480;11.102;2022-07-23T03:35:17;18.08;;;16.33;;
13660;SDS011;6903;49.480;11.102;2022-07-23T03:37:42;17.85;;;16.00;;
13660;SDS011;6903;49.480;11.102;2022-07-23T03:40:07;18.13;;;16.42;;
13660;SDS011;6903;49.480;11.102;2022-07-23T03:42:33;18.20;;;16.23;;
13660;SDS011;6903;49.480;11.102;2022-07-23T03:44:58;17.63;;;15.80;;
13660;SDS011;6903;49.480;11.102;2022-07-23T03:47:24;17.77;;;16.00;;
13660;SDS011;6903;49.480;11.102;2022-07-23T03:49:49;18.00;;;16.23;;
13660;SDS011;6903;49.480;11.102;2022-07-23T03:52:14;18.20;;;16.30;;
13660;SDS011;6903;49.480;11.102;2022-07-23T03:54:40;19.60;;;17.42;;
13660;SDS011;6903;49.480;11.102;2022-07-23T03:57:05;18.83;;;17.05;;
13660;SDS011;6903;49.480;11.102;2022-07-23T03:59:30;18.75;;;16.88;;
13660;SDS011;6903;49.480;11.102;2022-07-23T04:01:56;17.77;;;15.90;;
13660;SDS011;6903;49.480;11.102;2022-07-23T04:04:21;20.00;;;15.00;;
13660;SDS011;6903;49.480;11.102;2022-07-23T04:06:47;17.63;;;15.82;;
13660;SDS011;6903;49.480;11.102;2022-07-23T04:09:12;17.42;;;15.82;;
13660;SDS011;6903;49.480;11.102;2022-07-23T04:11:38;18.00;;;16.10;;
13660;SDS011;6903;49.480;11.102;2022-07-23T04:14:03;16.90;;;15.48;;
13660;SDS011;6903;49.480;11.102;2022-07-23T04:16:29;17.90;;;15.10;;
13660;SDS011;6903;49.480;11.102;2022-07-23T04:18:56;16.70;;;15.20;;
13660;SDS011;6903;49.480;11.102;2022-07-23T04:21:21;17.25;;;15.55;;
13660;SDS011;6903;49.480;11.102;2022-07-23T04:23:48;18.63;;;14.55;;
13660;SDS011;6903;49.480;11.102;2022-07-23T04:26:13;16.23;;;14.05;;
13660;SDS011;6903;49.480;11.102;2022-07-23T04:28:38;15.13;;;13.68;;
13660;SDS011;6903;49.480;11.102;2022-07-23T04:31:03;13.52;;;12.25;;
13660;SDS011;6903;49.480;11.102;2022-07-23T04:33:29;14.45;;;12.95;;
13660;SDS011;6903;49.480;11.102;2022-07-23T04:35:54;14.43;;;13.02;;
13660;SDS011;6903;49.480;11.102;2022-07-23T04:38:20;14.95;;;13.48;;
13660;SDS011;6903;49.480;11.102;2022-07-23T04:40:45;13.85;;;12.45;;
13660;SDS011;6903;49.480;11.102;2022-07-23T04:43:10;14.07;;;12.65;;
13660;SDS011;6903;49.480;11.102;2022-07-23T04:45:36;13.70;;;12.43;;
13660;SDS011;6903;49.480;11.102;2022-07-23T04:48:01;13.77;;;12.45;;
13660;SDS011;6903;49.480;11.102;2022-07-23T04:50:26;12.65;;;11.45;;
13660;SDS011;6903;49.480;11.102;2022-07-23T04:52:52;12.48;;;11.27;;
13660;SDS011;6903;49.480;11.102;2022-07-23T04:55:17;12.93;;;11.75;;
13660;SDS011;6903;49.480;11.102;2022-07-23T04:57:42;12.10;;;10.88;;
13660;SDS011;6903;49.480;11.102;2022-07-23T05:00:09;12.35;;;11.15;;
13660;SDS011;6903;49.480;11.102;2022-07-23T05:02:34;11.77;;;10.15;;
13660;SDS011;6903;49.480;11.102;2022-07-23T05:05:00;11.32;;;10.43;;
13660;SDS011;6903;49.480;11.102;2022-07-23T05:07:25;11.82;;;10.57;;
13660;SDS011;6903;49.480;11.102;2022-07-23T05:09:50;11.88;;;10.57;;
13660;SDS011;6903;49.480;11.102;2022-07-23T05:12:16;11.00;;;10.05;;
13660;SDS011;6903;49.480;11.102;2022-07-23T05:14:41;10.85;;;9.85;;
13660;SDS011;6903;49.480;11.102;2022-07-23T05:17:07;11.55;;;10.35;;
13660;SDS011;6903;49.480;11.102;2022-07-23T05:19:33;11.20;;;10.00;;
13660;SDS011;6903;49.480;11.102;2022-07-23T05:21:59;10.73;;;9.63;;
13660;SDS011;6903;49.480;11.102;2022-07-23T05:24:24;9.52;;;8.63;;
13660;SDS011;6903;49.480;11.102;2022-07-23T05:26:50;9.45;;;8.63;;
13660;SDS011;6903;49.480;11.102;2022-07-23T05:29:15;8.93;;;8.13;;
13660;SDS011;6903;49.480;11.102;2022-07-23T05:31:40;8.75;;;7.90;;
13660;SDS011;6903;49.480;11.102;2022-07-23T05:34:06;8.10;;;7.38;;
13660;SDS011;6903;49.480;11.102;2022-07-23T05:36:31;8.23;;;7.47;;
13660;SDS011;6903;49.480;11.102;2022-07-23T05:38:57;7.43;;;6.72;;
13660;SDS011;6903;49.480;11.102;2022-07-23T05:41:22;7.45;;;6.78;;
13660;SDS011;6903;49.480;11.102;2022-07-23T05:43:47;7.60;;;6.60;;
13660;SDS011;6903;49.480;11.102;2022-07-23T05:46:13;7.07;;;6.45;;
13660;SDS011;6903;49.480;11.102;2022-07-23T05:48:38;6.07;;;5.50;;
13660;SDS011;6903;49.480;11.102;2022-07-23T05:51:03;5.95;;;5.45;;
13660;SDS011;6903;49.480;11.102;2022-07-23T05:53:31;6.20;;;5.70;;
13660;SDS011;6903;49.480;11.102;2022-07-23T05:55:57;6.32;;;5.75;;
13660;SDS011;6903;49.480;11.102;2022-07-23T05:58:22;5.90;;;5.40;;
13660;SDS011;6903;49.480;11.102;2022-07-23T06:00:47;5.57;;;5.15;;
13660;SDS011;6903;49.480;11.102;2022-07-23T06:03:14;6.32;;;5.40;;
13660;SDS011;6903;49.480;11.102;2022-07-23T06:05:39;5.28;;;4.88;;
13660;SDS011;6903;49.480;11.102;2022-07-23T06:08:04;5.45;;;5.05;;
13660;SDS011;6903;49.480;11.102;2022-07-23T06:10:30;4.88;;;4.47;;
13660;SDS011;6903;49.480;11.102;2022-07-23T06:12:55;5.88;;;5.28;;
13660;SDS011;6903;49.480;11.102;2022-07-23T06:15:20;5.40;;;4.90;;
13660;SDS011;6903;49.480;11.102;2022-07-23T06:17:46;5.00;;;4.60;;
13660;SDS011;6903;49.480;11.102;2022-07-23T06:20:11;5.43;;;4.75;;
13660;SDS011;6903;49.480;11.102;2022-07-23T06:22:36;5.18;;;4.78;;
13660;SDS011;6903;49.480;11.102;2022-07-23T06:25:02;4.82;;;4.43;;
13660;SDS011;6903;49.480;11.102;2022-07-23T06:27:28;4.90;;;4.50;;
13660;SDS011;6903;49.480;11.102;2022-07-23T06:29:53;4.72;;;4.32;;
13660;SDS011;6903;49.480;11.102;2022-07-23T06:32:18;6.00;;;4.55;;
13660;SDS011;6903;49.480;11.102;2022-07-23T06:34:44;4.63;;;4.22;;
13660;SDS011;6903;49.480;11.102;2022-07-23T06:37:09;5.78;;;4.70;;
13660;SDS011;6903;49.480;11.102;2022-07-23T06:39:34;4.47;;;4.03;;
13660;SDS011;6903;49.480;11.102;2022-07-23T06:42:00;5.00;;;4.50;;
13660;SDS011;6903;49.480;11.102;2022-07-23T06:44:26;4.05;;;3.75;;
13660;SDS011;6903;49.480;11.102;2022-07-23T06:46:52;5.82;;;4.18;;
13660;SDS011;6903;49.480;11.102;2022-07-23T06:49:17;4.45;;;4.13;;
13660;SDS011;6903;49.480;11.102;2022-07-23T06:51:42;6.63;;;4.65;;
13660;SDS011;6903;49.480;11.102;2022-07-23T06:54:07;4.28;;;3.83;;
13660;SDS011;6903;49.480;11.102;2022-07-23T06:56:33;6.63;;;4.97;;
13660;SDS011;6903;49.480;11.102;2022-07-23T06:58:58;4.63;;;4.22;;
13660;SDS011;6903;49.480;11.102;2022-07-23T07:01:23;5.50;;;4.97;;
13660;SDS011;6903;49.480;11.102;2022-07-23T07:03:49;5.55;;;5.03;;
13660;SDS011;6903;49.480;11.102;2022-07-23T07:06:14;4.95;;;4.50;;
13660;SDS011;6903;49.480;11.102;2022-07-23T07:08:39;7.10;;;6.35;;
13660;SDS011;6903;49.480;11.102;2022-07-23T07:11:05;5.35;;;4.88;;
13660;SDS011;6903;49.480;11.102;2022-07-23T07:13:30;5.40;;;4.90;;
13660;SDS011;6903;49.480;11.102;2022-07-23T07:15:56;5.32;;;4.82;;
13660;SDS011;6903;49.480;11.102;2022-07-23T07:18:21;6.68;;;5.25;;
13660;SDS011;6903;49.480;11.102;2022-07-23T07:20:46;6.72;;;5.30;;
13660;SDS011;6903;49.480;11.102;2022-07-23T07:23:12;6.45;;;5.78;;
13660;SDS011;6903;49.480;11.102;2022-07-23T07:25:37;6.55;;;5.95;;
13660;SDS011;6903;49.480;11.102;2022-07-23T07:28:03;5.90;;;5.32;;
13660;SDS011;6903;49.480;11.102;2022-07-23T07:30:28;7.13;;;6.20;;
13660;SDS011;6903;49.480;11.102;2022-07-23T07:32:53;6.72;;;6.13;;
13660;SDS011;6903;49.480;11.102;2022-07-23T07:35:19;6.97;;;6.38;;
13660;SDS011;6903;49.480;11.102;2022-07-23T07:37:44;5.63;;;5.13;;
13660;SDS011;6903;49.480;11.102;2022-07-23T07:40:09;6.22;;;5.72;;
13660;SDS011;6903;49.480;11.102;2022-07-23T07:42:43;6.72;;;6.22;;
13660;SDS011;6903;49.480;11.102;2022-07-23T07:45:12;6.93;;;6.22;;
13660;SDS011;6903;49.480;11.102;2022-07-23T07:47:38;6.85;;;6.15;;
13660;SDS011;6903;49.480;11.102;2022-07-23T07:50:03;7.07;;;6.55;;
13660;SDS011;6903;49.480;11.102;2022-07-23T07:52:29;6.70;;;6.00;;
13660;SDS011;6903;49.480;11.102;2022-07-23T07:54:54;7.40;;;6.70;;
13660;SDS011;6903;49.480;11.102;2022-07-23T07:57:19;8.10;;;7.00;;
13660;SDS011;6903;49.480;11.102;2022-07-23T07:59:45;9.32;;;8.27;;
13660;SDS011;6903;49.480;11.102;2022-07-23T08:02:10;9.77;;;8.98;;
13660;SDS011;6903;49.480;11.102;2022-07-23T08:04:35;9.88;;;8.77;;
13660;SDS011;6903;49.480;11.102;2022-07-23T08:07:00;9.88;;;8.98;;
13660;SDS011;6903;49.480;11.102;2022-07-23T08:09:26;9.93;;;8.13;;
13660;SDS011;6903;49.480;11.102;2022-07-23T08:11:51;9.82;;;8.82;;
13660;SDS011;6903;49.480;11.102;2022-07-23T08:14:17;10.05;;;9.15;;
13660;SDS011;6903;49.480;11.102;2022-07-23T08:16:43;10.27;;;9.38;;
13660;SDS011;6903;49.480;11.102;2022-07-23T08:19:08;10.35;;;9.38;;
13660;SDS011;6903;49.480;11.102;2022-07-23T08:21:33;11.05;;;9.93;;
13660;SDS011;6903;49.480;11.102;2022-07-23T08:23:58;11.35;;;10.25;;
13660;SDS011;6903;49.480;11.102;2022-07-23T08:26:24;9.77;;;8.60;;
13660;SDS011;6903;49.480;11.102;2022-07-23T08:28:49;9.65;;;8.65;;
13660;SDS011;6903;49.480;11.102;2022-07-23T08:31:14;12.00;;;9.13;;
13660;SDS011;6903;49.480;11.102;2022-07-23T08:33:41;9.93;;;8.85;;
13660;SDS011;6903;49.480;11.102;2022-07-23T08:36:06;9.68;;;8.55;;
13660;SDS011;6903;49.480;11.102;2022-07-23T08:38:32;9.38;;;8.48;;
13660;SDS011;6903;49.480;11.102;2022-07-23T08:40:58;9.48;;;8.63;;
13660;SDS011;6903;49.480;11.102;2022-07-23T08:43:24;9.32;;;8.43;;
13660;SDS011;6903;49.480;11.102;2022-07-23T08:45:52;9.30;;;8.50;;
13660;SDS011;6903;49.480;11.102;2022-07-23T08:48:22;11.38;;;10.38;;
13660;SDS011;6903;49.480;11.102;2022-07-23T08:50:54;10.38;;;9.45;;
13660;SDS011;6903;49.480;11.102;2022-07-23T08:53:21;10.45;;;9.55;;
13660;SDS011;6903;49.480;11.102;2022-07-23T08:55:48;9.73;;;8.93;;
13660;SDS011;6903;49.480;11.102;2022-07-23T08:58:16;9.55;;;8.65;;
13660;SDS011;6903;49.480;11.102;2022-07-23T09:00:42;7.97;;;7.15;;
13660;SDS011;6903;49.480;11.102;2022-07-23T09:03:13;9.27;;;8.50;;
13660;SDS011;6903;49.480;11.102;2022-07-23T09:05:40;9.80;;;8.85;;
13660;SDS011;6903;49.480;11.102;2022-07-23T09:08:16;11.05;;;10.05;;
13660;SDS011;6903;49.480;11.102;2022-07-23T09:10:47;9.73;;;8.73;;
13660;SDS011;6903;49.480;11.102;2022-07-23T09:15:49;9.27;;;8.38;;
13660;SDS011;6903;49.480;11.102;2022-07-23T09:18:15;11.23;;;10.18;;
13660;SDS011;6903;49.480;11.102;2022-07-23T09:20:41;8.85;;;7.32;;
13660;SDS011;6903;49.480;11.102;2022-07-23T09:23:06;10.13;;;9.23;;
13660;SDS011;6903;49.480;11.102;2022-07-23T09:25:31;8.70;;;7.88;;
13660;SDS011;6903;49.480;11.102;2022-07-23T09:27:57;9.98;;;8.98;;
13660;SDS011;6903;49.480;11.102;2022-07-23T09:30:27;8.70;;;7.85;;
13660;SDS011;6903;49.480;11.102;2022-07-23T09:33:04;8.73;;;7.60;;
13660;SDS011;6903;49.480;11.102;2022-07-23T09:35:48;7.65;;;6.95;;
13660;SDS011;6903;49.480;11.102;2022-07-23T09:38:15;8.73;;;7.93;;
13660;SDS011;6903;49.480;11.102;2022-07-23T09:40:41;7.80;;;7.00;;
13660;SDS011;6903;49.480;11.102;2022-07-23T09:43:06;7.82;;;7.13;;
13660;SDS011;6903;49.480;11.102;2022-07-23T09:45:31;9.23;;;8.32;;
13660;SDS011;6903;49.480;11.102;2022-07-23T09:48:17;10.35;;;8.38;;
13660;SDS011;6903;49.480;11.102;2022-07-23T09:50:43;8.98;;;7.55;;
13660;SDS011;6903;49.480;11.102;2022-07-23T09:53:09;10.52;;;8.63;;
13660;SDS011;6903;49.480;11.102;2022-07-23T09:55:48;9.90;;;8.90;;
13660;SDS011;6903;49.480;11.102;2022-07-23T09:58:13;8.73;;;7.93;;
13660;SDS011;6903;49.480;11.102;2022-07-23T10:00:39;7.85;;;7.15;;
13660;SDS011;6903;49.480;11.102;2022-07-23T10:03:06;9.75;;;8.60;;
13660;SDS011;6903;49.480;11.102;2022-07-23T10:05:31;9.88;;;8.88;;
13660;SDS011;6903;49.480;11.102;2022-07-23T10:08:00;9.13;;;8.23;;
13660;SDS011;6903;49.480;11.102;2022-07-23T10:10:27;8.82;;;8.02;;
13660;SDS011;6903;49.480;11.102;2022-07-23T10:12:54;11.68;;;10.50;;
13660;SDS011;6903;49.480;11.102;2022-07-23T10:15:40;9.57;;;8.68;;
13660;SDS011;6903;49.480;11.102;2022-07-23T10:18:06;9.75;;;8.75;;
13660;SDS011;6903;49.480;11.102;2022-07-23T10:20:34;10.50;;;9.40;;
13660;SDS011;6903;49.480;11.102;2022-07-23T10:23:24;10.70;;;9.65;;
13660;SDS011;6903;49.480;11.102;2022-07-23T10:26:05;12.02;;;10.80;;
13660;SDS011;6903;49.480;11.102;2022-07-23T10:31:47;16.05;;;12.27;;
13660;SDS011;6903;49.480;11.102;2022-07-23T10:34:24;17.67;;;15.98;;
13660;SDS011;6903;49.480;11.102;2022-07-23T10:37:17;16.17;;;14.63;;
13660;SDS011;6903;49.480;11.102;2022-07-23T10:42:37;18.73;;;16.85;;
13660;SDS011;6903;49.480;11.102;2022-07-23T10:48:14;18.90;;;16.98;;
13660;SDS011;6903;49.480;11.102;2022-07-23T10:50:41;17.33;;;15.73;;
13660;SDS011;6903;49.480;11.102;2022-07-23T10:53:08;16.08;;;14.48;;
13660;SDS011;6903;49.480;11.102;2022-07-23T10:58:03;15.98;;;14.38;;
13660;SDS011;6903;49.480;11.102;2022-07-23T11:00:30;16.83;;;15.13;;
13660;SDS011;6903;49.480;11.102;2022-07-23T11:03:01;16.98;;;14.40;;
13660;SDS011;6903;49.480;11.102;2022-07-23T11:05:42;14.85;;;13.45;;
13660;SDS011;6903;49.480;11.102;2022-07-23T11:10:53;16.58;;;15.02;;
13660;SDS011;6903;49.480;11.102;2022-07-23T11:13:28;16.90;;;15.30;;
13660;SDS011;6903;49.480;11.102;2022-07-23T11:34:44;9.23;;;8.32;;
13660;SDS011;6903;49.480;11.102;2022-07-23T11:37:13;9.73;;;7.95;;
13660;SDS011;6903;49.480;11.102;2022-07-23T11:39:56;10.43;;;9.20;;
13660;SDS011;6903;49.480;11.102;2022-07-23T11:42:22;9.18;;;8.23;;
13660;SDS011;6903;49.480;11.102;2022-07-23T11:44:49;10.65;;;9.55;;
13660;SDS011;6903;49.480;11.102;2022-07-23T11:47:15;9.48;;;8.68;;
13660;SDS011;6903;49.480;11.102;2022-07-23T11:49:56;10.32;;;9.40;;
13660;SDS011;6903;49.480;11.102;2022-07-23T11:52:24;10.18;;;9.27;;
13660;SDS011;6903;49.480;11.102;2022-07-23T11:57:39;8.18;;;7.43;;
13660;SDS011;6903;49.480;11.102;2022-07-23T12:00:16;8.43;;;7.60;;
13660;SDS011;6903;49.480;11.102;2022-07-23T12:02:52;9.00;;;8.20;;
13660;SDS011;6903;49.480;11.102;2022-07-23T12:05:22;7.97;;;7.28;;
13660;SDS011;6903;49.480;11.102;2022-07-23T12:07:50;8.20;;;7.40;;
13660;SDS011;6903;49.480;11.102;2022-07-23T12:12:45;7.32;;;6.63;;
13660;SDS011;6903;49.480;11.102;2022-07-23T12:15:14;7.80;;;7.13;;
13660;SDS011;6903;49.480;11.102;2022-07-23T12:17:43;7.20;;;6.50;;
13660;SDS011;6903;49.480;11.102;2022-07-23T12:20:19;7.88;;;7.07;;
13660;SDS011;6903;49.480;11.102;2022-07-23T12:22:47;8.18;;;7.40;;
13660;SDS011;6903;49.480;11.102;2022-07-23T12:25:15;7.97;;;7.25;;
13660;SDS011;6903;49.480;11.102;2022-07-23T12:27:42;8.02;;;7.32;;
13660;SDS011;6903;49.480;11.102;2022-07-23T12:30:22;8.32;;;7.55;;
13660;SDS011;6903;49.480;11.102;2022-07-23T12:32:53;7.75;;;6.72;;
13660;SDS011;6903;49.480;11.102;2022-07-23T12:35:20;7.30;;;6.70;;
13660;SDS011;6903;49.480;11.102;2022-07-23T12:37:48;8.13;;;7.43;;
13660;SDS011;6903;49.480;11.102;2022-07-23T12:45:22;7.38;;;6.68;;
13660;SDS011;6903;49.480;11.102;2022-07-23T12:47:52;8.13;;;7.38;;
13660;SDS011;6903;49.480;11.102;2022-07-23T12:53:09;7.45;;;6.72;;
13660;SDS011;6903;49.480;11.102;2022-07-23T12:55:37;7.68;;;7.07;;
13660;SDS011;6903;49.480;11.102;2022-07-23T12:58:04;7.65;;;6.50;;
13660;SDS011;6903;49.480;11.102;2022-07-23T13:00:48;6.28;;;5.85;;
13660;SDS011;6903;49.480;11.102;2022-07-23T13:03:32;7.32;;;6.72;;
13660;SDS011;6903;49.480;11.102;2022-07-23T13:06:06;7.25;;;6.65;;
13660;SDS011;6903;49.480;11.102;2022-07-23T13:08:33;7.47;;;6.60;;
13660;SDS011;6903;49.480;11.102;2022-07-23T13:11:00;7.53;;;6.82;;
13660;SDS011;6903;49.480;11.102;2022-07-23T13:13:27;7.53;;;6.82;;
13660;SDS011;6903;49.480;11.102;2022-07-23T13:15:55;7.43;;;6.78;;
13660;SDS011;6903;49.480;11.102;2022-07-23T13:18:22;8.73;;;6.88;;
13660;SDS011;6903;49.480;11.102;2022-07-23T13:20:48;7.63;;;7.03;;
13660;SDS011;6903;49.480;11.102;2022-07-23T13:23:14;6.68;;;6.07;;
13660;SDS011;6903;49.480;11.102;2022-07-23T13:25:41;6.40;;;5.80;;
13660;SDS011;6903;49.480;11.102;2022-07-23T13:28:07;6.65;;;6.15;;
13660;SDS011;6903;49.480;11.102;2022-07-23T13:30:32;6.00;;;5.50;;
13660;SDS011;6903;49.480;11.102;2022-07-23T13:32:58;6.53;;;6.03;;
13660;SDS011;6903;49.480;11.102;2022-07-23T13:35:24;7.38;;;6.78;;
13660;SDS011;6903;49.480;11.102;2022-07-23T13:37:49;7.22;;;6.63;;
13660;SDS011;6903;49.480;11.102;2022-07-23T13:40:15;5.65;;;5.15;;
13660;SDS011;6903;49.480;11.102;2022-07-23T13:42:40;5.70;;;5.20;;
13660;SDS011;6903;49.480;11.102;2022-07-23T13:45:06;6.22;;;5.65;;
13660;SDS011;6903;49.480;11.102;2022-07-23T13:47:32;7.40;;;6.80;;
13660;SDS011;6903;49.480;11.102;2022-07-23T13:49:57;6.40;;;5.90;;
13660;SDS011;6903;49.480;11.102;2022-07-23T13:52:23;6.55;;;6.05;;
13660;SDS011;6903;49.480;11.102;2022-07-23T13:54:49;7.20;;;6.55;;
13660;SDS011;6903;49.480;11.102;2022-07-23T13:57:14;6.78;;;6.18;;
13660;SDS011;6903;49.480;11.102;2022-07-23T13:59:40;6.82;;;6.22;;
13660;SDS011;6903;49.480;11.102;2022-07-23T14:02:05;6.85;;;6.28;;
13660;SDS011;6903;49.480;11.102;2022-07-23T14:04:31;6.57;;;6.07;;
13660;SDS011;6903;49.480;11.102;2022-07-23T14:06:57;6.90;;;6.20;;
13660;SDS011;6903;49.480;11.102;2022-07-23T14:09:23;5.95;;;5.47;;
13660;SDS011;6903;49.480;11.102;2022-07-23T14:11:48;7.57;;;6.88;;
13660;SDS011;6903;49.480;11.102;2022-07-23T14:14:16;6.50;;;5.90;;
13660;SDS011;6903;49.480;11.102;2022-07-23T14:16:42;5.80;;;5.30;;
13660;SDS011;6903;49.480;11.102;2022-07-23T14:19:07;7.57;;;6.70;;
13660;SDS011;6903;49.480;11.102;2022-07-23T14:21:33;6.28;;;5.78;;
13660;SDS011;6903;49.480;11.102;2022-07-23T14:23:58;6.72;;;6.13;;
13660;SDS011;6903;49.480;11.102;2022-07-23T14:26:23;7.38;;;6.78;;
13660;SDS011;6903;49.480;11.102;2022-07-23T14:28:49;6.82;;;6.18;;
13660;SDS011;6903;49.480;11.102;2022-07-23T14:31:14;7.03;;;6.35;;
13660;SDS011;6903;49.480;11.102;2022-07-23T14:33:40;6.63;;;6.10;;
13660;SDS011;6903;49.480;11.102;2022-07-23T14:36:05;7.10;;;6.50;;
13660;SDS011;6903;49.480;11.102;2022-07-23T14:38:30;6.60;;;6.07;;
13660;SDS011;6903;49.480;11.102;2022-07-23T14:40:56;5.55;;;5.05;;
13660;SDS011;6903;49.480;11.102;2022-07-23T14:43:22;6.72;;;6.13;;
13660;SDS011;6903;49.480;11.102;2022-07-23T14:45:47;6.65;;;6.15;;
13660;SDS011;6903;49.480;11.102;2022-07-23T14:48:13;7.28;;;6.57;;
13660;SDS011;6903;49.480;11.102;2022-07-23T14:50:38;8.32;;;7.63;;
13660;SDS011;6903;49.480;11.102;2022-07-23T14:53:04;6.60;;;6.10;;
13660;SDS011;6903;49.480;11.102;2022-07-23T14:55:32;6.57;;;6.07;;
13660;SDS011;6903;49.480;11.102;2022-07-23T14:57:58;6.40;;;5.90;;
13660;SDS011;6903;49.480;11.102;2022-07-23T15:00:23;7.07;;;6.13;;
13660;SDS011;6903;49.480;11.102;2022-07-23T15:02:49;6.85;;;6.13;;
13660;SDS011;6903;49.480;11.102;2022-07-23T15:05:14;6.60;;;6.10;;
13660;SDS011;6903;49.480;11.102;2022-07-23T15:07:39;7.03;;;6.32;;
13660;SDS011;6903;49.480;11.102;2022-07-23T15:10:05;5.63;;;5.22;;
13660;SDS011;6903;49.480;11.102;2022-07-23T15:12:31;8.00;;;7.20;;
13660;SDS011;6903;49.480;11.102;2022-07-23T15:14:56;6.00;;;5.47;;
13660;SDS011;6903;49.480;11.102;2022-07-23T15:17:21;6.20;;;5.63;;
13660;SDS011;6903;49.480;11.102;2022-07-23T15:19:47;6.30;;;5.68;;
13660;SDS011;6903;49.480;11.102;2022-07-23T15:22:12;6.30;;;5.63;;
13660;SDS011;6903;49.480;11.102;2022-07-23T15:24:38;7.75;;;5.97;;